Chadstone Weather > Observations for 02/10/20

Select Day:



Observations
Time Temp Hum DP Wind Gust Dir Rain >9am Press
C % C kph kph mm hPa
00:00 14.6 58 6.4 5.1 12.2 N 5.1 1024.4
00:10 14.5 58 6.3 7.2 17.3 N 5.1 1024.3
00:20 14.5 58 6.3 7.7 14.8 N 5.1 1024.3
00:30 14.5 58 6.3 6.0 12.2 N 5.1 1024.1
00:40 14.4 58 6.2 5.4 12.2 NNW 5.1 1024.2
00:50 14.4 59 6.5 6.9 13.3 N 5.1 1024.1
01:00 14.4 57 6.0 8.0 15.8 N 5.1 1024.0
01:10 14.5 56 5.8 9.2 15.8 N 5.1 1023.6
01:20 14.5 56 5.8 10.4 19.4 N 5.1 1023.2
01:30 14.7 55 5.8 9.5 19.4 N 5.1 1023.0
01:40 14.8 54 5.6 10.3 19.4 NNW 5.1 1022.9
01:50 14.9 54 5.7 12.0 25.6 N 5.1 1022.6
02:00 15.1 51 5.0 12.5 22.0 NNW 5.1 1022.3
02:10 15.1 51 5.0 13.2 27.0 N 5.1 1022.3
02:20 15.3 50 4.9 16.2 27.0 NNE 5.1 1022.3
02:30 15.3 50 4.9 13.4 25.6 N 5.1 1022.2
02:40 15.4 50 5.0 13.5 22.0 N 5.1 1022.2
02:50 15.4 50 5.0 13.7 23.4 N 5.1 1022.2
03:00 15.3 50 4.9 12.7 24.5 N 5.1 1022.0
03:10 15.3 50 4.9 13.7 24.5 N 5.1 1021.9
03:20 15.4 49 4.7 15.3 28.1 N 5.1 1021.9
03:30 15.4 49 4.7 11.9 27.0 NNW 5.1 1021.9
03:40 15.4 49 4.7 13.1 27.0 NNW 5.1 1021.9
03:50 15.6 48 4.6 18.9 31.7 NNW 5.1 1021.9
04:00 15.7 47 4.4 17.8 37.8 NW 5.1 1022.0
04:10 15.7 47 4.4 18.6 30.6 NNW 5.1 1022.1
04:20 15.8 47 4.5 17.6 35.6 NNW 5.1 1022.0
04:30 15.8 47 4.5 20.4 42.8 NNW 0.0 1022.1
04:40 15.8 47 4.5 21.6 37.8 NNW 0.0 1022.0
04:50 15.9 46 4.3 22.9 37.8 NNW 0.0 1022.1
05:00 15.9 46 4.3 19.6 34.2 NNW 0.0 1022.4
05:10 16.0 45 4.1 17.1 33.1 NNW 0.0 1022.3
05:20 15.9 46 4.3 17.3 35.6 NNW 0.0 1022.4
05:30 15.8 47 4.5 18.1 34.2 NNW 0.0 1022.7
05:40 15.6 48 4.6 14.5 29.5 NW 0.0 1022.9
05:50 15.5 48 4.5 13.4 23.4 NNW 0.0 1022.9
06:00 15.4 49 4.7 15.6 29.5 NNW 0.0 1023.2
06:10 15.2 50 4.9 14.1 29.5 NNW 0.0 1023.3
06:20 15.0 51 5.0 12.3 25.6 N 0.0 1023.5
06:30 15.0 52 5.2 13.4 25.6 N 0.0 1023.6
06:40 15.0 52 5.2 14.3 28.1 N 0.0 1023.9
06:50 15.1 53 5.6 13.4 23.4 N 0.0 1023.9
07:00 15.3 53 5.8 14.2 27.0 N 0.0 1024.1
07:10 15.4 53 5.9 12.7 24.5 N 0.0 1024.1
07:20 15.5 53 6.0 13.4 25.6 N 0.0 1024.2
07:30 15.8 53 6.2 11.6 23.4 NNE 0.0 1024.4
07:40 15.9 53 6.3 11.1 20.9 N 0.0 1024.4
07:50 16.3 52 6.4 12.9 29.5 N 0.0 1024.4
08:00 16.8 52 6.9 12.5 23.4 N 0.0 1024.5
08:10 17.1 50 6.6 14.9 28.1 N 0.0 1024.7
08:20 17.5 49 6.7 17.9 35.6 NNE 0.0 1024.6
08:30 17.8 49 7.0 20.5 35.6 NNW 0.0 1024.6
08:40 18.3 48 7.1 16.6 34.2 N 0.0 1024.8
08:50 18.7 48 7.5 15.4 27.0 N 0.0 1024.9
09:00 19.0 47 7.4 17.2 35.6 N 0.0 1024.9
09:10 19.3 47 7.7 15.9 35.6 NNW 0.0 1024.9
09:20 19.9 47 8.3 16.1 42.8 N 0.0 1024.8
09:30 20.1 46 8.1 18.8 42.8 N 0.0 1024.8
09:40 20.3 46 8.3 19.9 30.6 N 0.0 1024.8
09:50 20.5 47 8.8 20.3 40.3 NW 0.0 1024.7
10:00 20.8 46 8.8 20.0 41.8 NNW 0.0 1024.5
10:10 21.1 45 8.7 19.5 34.2 NW 0.0 1024.4
10:20 21.3 45 8.9 16.5 33.1 NNW 0.0 1024.5
10:30 21.9 45 9.4 15.1 37.8 NNW 0.0 1024.2
10:40 22.0 44 9.2 20.6 41.8 NNW 0.0 1024.2
10:50 22.0 44 9.2 23.4 43.9 NNW 0.0 1024.0
11:00 22.2 44 9.4 24.6 40.3 NNW 0.0 1023.8
11:10 22.6 44 9.7 16.7 37.8 N 0.0 1023.7
11:20 22.9 44 10.0 21.0 42.8 N 0.0 1023.2
11:30 23.3 46 11.0 18.9 42.8 NNW 0.0 1023.2
11:40 23.5 46 11.2 21.0 39.2 NNW 0.0 1023.5
11:50 23.6 46 11.3 21.0 39.2 NNW 0.0 1023.8
12:00 23.9 46 11.6 18.0 36.7 N 0.0 1023.7
12:10 24.0 45 11.4 19.7 41.8 NW 0.0 1023.4
12:20 24.1 44 11.1 20.7 43.9 WNW 0.0 1023.2
12:30 24.3 44 11.3 20.9 37.8 NNW 0.0 1023.1
12:40 24.4 45 11.7 21.2 42.8 NNW 0.0 1023.1
12:50 24.4 44 11.4 23.8 42.8 NNW 0.0 1023.0
13:00 24.5 45 11.8 21.2 41.8 N 0.0 1023.1
13:10 24.7 45 12.0 21.8 41.8 NNW 0.0 1022.9
13:20 24.8 45 12.1 20.2 37.8 NW 0.0 1022.9
13:30 24.8 45 12.1 23.5 40.3 N 0.0 1022.7
13:40 25.0 44 11.9 20.5 41.8 NW 0.0 1022.7
13:50 25.0 44 11.9 25.0 45.4 NNW 0.0 1022.8
14:00 24.9 45 12.2 21.9 46.4 NNW 0.0 1022.6
14:10 25.2 44 12.1 20.9 42.8 NW 0.0 1022.4
14:20 25.1 44 12.0 21.0 39.2 NNW 0.0 1022.3
14:30 25.0 44 11.9 22.6 43.9 NNW 0.0 1022.2
14:40 25.2 45 12.4 21.1 43.9 NNW 0.0 1022.2
14:50 25.2 45 12.4 21.3 50.0 NW 0.0 1022.3
15:00 25.2 44 12.1 26.2 50.0 N 0.0 1022.3
15:10 25.3 45 12.5 24.0 47.9 NNW 0.0 1022.2
15:20 25.3 44 12.2 24.4 41.8 N 0.0 1022.2
15:30 25.3 45 12.5 22.0 39.2 NNW 0.0 1022.0
15:40 25.4 45 12.6 23.9 42.8 N 0.0 1022.1
15:50 25.5 45 12.7 20.3 37.8 NNW 0.0 1022.1
16:00 25.7 44 12.6 20.3 39.2 NNW 0.0 1022.1
16:10 25.8 44 12.6 19.2 36.7 NNE 0.0 1022.2
16:20 25.8 44 12.6 19.6 36.7 NNW 0.0 1022.0
16:30 25.9 44 12.7 17.3 39.2 NNW 0.0 1021.8
16:40 25.9 44 12.7 18.7 37.8 NNW 0.0 1021.9
16:50 25.7 45 12.9 16.5 36.7 NNE 0.0 1021.9
17:00 25.6 45 12.8 16.1 36.7 NNE 0.0 1022.0
17:10 25.4 46 13.0 16.1 33.1 NNW 0.0 1022.0
17:20 25.2 46 12.8 15.7 31.7 N 0.0 1022.0
17:30 25.0 47 12.9 18.3 35.6 NNW 0.0 1022.0
17:40 24.8 48 13.1 17.3 35.6 N 0.0 1022.1
17:50 24.7 48 13.0 17.5 30.6 NNE 0.0 1022.2
18:00 24.5 49 13.1 17.7 30.6 NNW 0.0 1022.2
18:10 24.2 50 13.1 14.5 28.1 NNW 0.0 1022.3
18:20 24.0 50 13.0 14.6 25.6 NNE 0.0 1022.2
18:30 23.8 52 13.4 14.0 36.7 N 0.0 1022.3
18:40 23.6 52 13.2 12.5 27.0 N 0.0 1022.4
18:50 23.5 53 13.4 15.5 27.0 N 0.0 1022.6
19:00 23.4 53 13.3 15.6 33.1 N 0.0 1022.6
19:10 23.3 54 13.5 17.2 35.6 N 0.0 1022.7
19:20 23.2 54 13.4 16.7 33.1 N 0.0 1022.5
19:30 23.1 54 13.3 14.6 31.7 N 0.0 1022.6
19:40 23.0 54 13.2 15.3 31.7 NNE 0.0 1022.6
19:50 22.9 54 13.1 15.0 28.1 N 0.0 1022.6
20:00 22.8 54 13.0 14.2 33.1 NNE 0.0 1022.7
20:10 22.8 54 13.0 19.0 35.6 NNE 0.0 1022.7
20:20 22.7 53 12.6 14.3 31.7 NNE 0.0 1022.5
20:30 22.7 53 12.6 15.0 27.0 NNE 0.0 1022.5
20:40 22.6 53 12.6 12.5 23.4 N 0.0 1022.4
20:50 22.6 53 12.6 13.2 27.0 N 0.0 1022.3
21:00 22.6 53 12.6 15.6 28.1 NNE 0.0 1022.5
21:10 22.6 52 12.3 16.5 28.1 N 0.0 1022.3
21:20 22.5 52 12.2 15.4 31.7 NNE 0.0 1022.5
21:30 22.5 52 12.2 15.5 25.6 N 0.0 1022.5
21:40 22.4 52 12.1 15.6 29.5 NNE 0.0 1022.4
21:50 22.4 52 12.1 18.0 31.7 N 0.0 1022.7
22:00 22.4 52 12.1 18.0 36.7 N 0.0 1022.8
22:10 22.3 52 12.0 15.1 27.0 N 0.0 1022.8
22:20 22.2 52 11.9 14.3 31.7 NNE 0.0 1022.8
22:30 22.1 52 11.8 15.3 31.7 N 0.0 1022.7
22:40 22.0 52 11.7 11.6 24.5 NNE 0.0 1022.8
22:50 22.0 52 11.7 11.2 23.4 NNE 0.0 1023.0
23:00 21.8 53 11.8 11.5 24.5 N 0.0 1022.8
23:10 21.8 53 11.8 10.5 20.9 N 0.0 1022.8
23:20 21.8 53 11.8 10.9 20.9 N 0.0 1023.0
23:30 21.9 52 11.6 11.9 19.4 NNE 0.0 1022.8
23:40 22.0 51 11.4 9.9 19.4 NNW 0.0 1022.8
23:50 22.1 51 11.5 11.5 35.6 NNE 0.0 1022.9